Time;durP1;ratioP1;P1;durP2;ratioP2;P2;SDS_P1;SDS_P2;PMS_P1;PMS_P2;Temp;Humidity;BMP_temperature;BMP_pressure;BME280_temperature;BME280_humidity;BME280_pressure;Samples;Min_cycle;Max_cycle;Signal;HPM_P1;HPM_P2
2022/02/23 00:01:54;;;;;;;43.70;19.52;;;;;;;6.04;93.44;149176.80;1722891;82;21722;-58
2022/02/23 00:04:21;;;;;;;40.15;19.82;;;;;;;6.03;91.98;149175.53;1722350;83;20987;-58
2022/02/23 00:06:48;;;;;;;41.88;19.42;;;;;;;6.02;91.53;149174.22;1723177;82;21362;-58
2022/02/23 00:09:15;;;;;;;38.23;19.50;;;;;;;6.02;89.45;149174.22;1715367;82;21128;-58
2022/02/23 00:11:41;;;;;;;37.03;17.90;;;;;;;6.05;89.15;149179.39;1725122;82;21096;-58
2022/02/23 00:14:10;;;;;;;34.27;17.87;;;;;;;6.07;89.18;149185.88;1728002;83;32612;-58
2022/02/23 00:16:37;;;;;;;38.35;16.48;;;;;;;6.08;87.65;149187.14;1726914;83;21045;-57
2022/02/23 00:19:03;;;;;;;35.55;16.67;;;;;;;6.09;86.80;149189.77;1728330;83;21460;-57
2022/02/23 00:21:30;;;;;;;33.05;16.10;;;;;;;6.09;85.48;149189.77;1728175;83;21140;-58
2022/02/23 00:23:57;;;;;;;31.70;16.70;;;;;;;6.10;85.31;149193.63;1704571;83;21036;-57
2022/02/23 00:26:23;;;;;;;34.90;16.42;;;;;;;6.12;84.90;149197.53;1708868;83;21386;-58
2022/02/23 00:28:50;;;;;;;35.52;16.45;;;;;;;6.12;83.84;149197.53;1720232;82;20981;-58
2022/02/23 00:31:19;;;;;;;32.45;15.45;;;;;;;6.12;83.11;149198.80;1722224;82;20930;-58
2022/02/23 00:33:45;;;;;;;33.05;16.12;;;;;;;6.14;82.09;149202.69;1713574;83;21609;-58
2022/02/23 00:36:12;;;;;;;33.83;14.85;;;;;;;6.14;81.25;149203.97;1699304;84;21029;-57
2022/02/23 00:38:38;;;;;;;37.03;14.53;;;;;;;6.12;80.14;149197.53;1699863;83;21471;-58
2022/02/23 00:41:05;;;;;;;36.05;14.07;;;;;;;6.12;80.06;149197.53;1703415;83;21049;-58
2022/02/23 00:43:33;;;;;;;33.80;13.58;;;;;;;6.09;79.18;149189.77;1706013;83;21042;-58
2022/02/23 00:46:00;;;;;;;43.95;13.62;;;;;;;6.09;78.71;149189.77;1666971;86;21858;-57
2022/02/23 00:48:27;;;;;;;34.00;12.55;;;;;;;6.08;78.36;149187.14;1668456;84;20955;-57
2022/02/23 00:50:54;;;;;;;35.30;12.35;;;;;;;6.07;78.14;149184.55;1690281;84;21133;-58
2022/02/23 00:53:21;;;;;;;33.80;13.68;;;;;;;6.06;77.92;149181.97;1744604;82;21428;-59
2022/02/23 00:55:48;;;;;;;34.00;12.47;;;;;;;6.04;77.13;149176.80;1722121;81;21517;-57
2022/02/23 00:58:15;;;;;;;30.95;10.98;;;;;;;6.04;77.27;149178.12;1713369;82;21111;-57
2022/02/23 01:00:42;;;;;;;35.85;11.88;;;;;;;6.05;76.66;149179.39;1735941;81;21025;-57
2022/02/23 01:03:10;;;;;;;24.00;10.38;;;;;;;6.02;76.82;149174.22;1755063;81;21079;-57
2022/02/23 01:05:37;;;;;;;25.97;10.08;;;;;;;6.04;76.32;149178.12;1738754;81;21041;-58
2022/02/23 01:08:04;;;;;;;32.25;10.63;;;;;;;6.05;76.00;149180.70;1729965;82;21040;-57
2022/02/23 01:10:32;;;;;;;24.52;10.03;;;;;;;6.05;75.88;149180.70;1744500;80;21460;-57
2022/02/23 01:12:59;;;;;;;24.98;10.15;;;;;;;6.05;75.30;149179.39;1730202;82;21057;-57
2022/02/23 01:15:26;;;;;;;30.52;12.20;;;;;;;6.03;75.28;149175.53;1744393;82;21010;-58
2022/02/23 01:17:54;;;;;;;23.83;10.55;;;;;;;6.01;75.38;149171.63;1743307;82;21087;-59
2022/02/23 01:20:21;;;;;;;24.12;9.70;;;;;;;5.99;75.40;149166.41;1744416;82;20882;-58
2022/02/23 01:22:49;;;;;;;28.85;10.23;;;;;;;5.96;75.62;149157.34;1726288;82;21076;-58
2022/02/23 01:25:17;;;;;;;26.27;9.98;;;;;;;5.91;75.66;149145.75;1750256;82;21119;-57
2022/02/23 01:27:44;;;;;;;25.10;9.68;;;;;;;5.86;75.91;149132.81;1702851;82;21058;-58
2022/02/23 01:30:13;;;;;;;38.73;10.23;;;;;;;5.82;76.17;149122.44;1709044;82;21436;-58
2022/02/23 01:32:40;;;;;;;27.07;10.38;;;;;;;5.76;76.45;149106.94;1749524;81;21076;-59
2022/02/23 01:35:08;;;;;;;21.70;10.18;;;;;;;5.71;76.66;149096.59;1734887;81;21049;-58
2022/02/23 01:37:35;;;;;;;22.60;9.48;;;;;;;5.65;76.81;149081.09;1687503;82;21111;-59
2022/02/23 01:40:04;;;;;;;26.57;11.10;;;;;;;5.61;76.85;149070.72;1704416;83;21062;-59
2022/02/23 01:42:31;;;;;;;25.82;10.13;;;;;;;5.58;76.96;149062.97;1683391;84;21010;-58
2022/02/23 01:44:58;;;;;;;25.12;10.10;;;;;;;5.54;77.05;149052.64;1718111;82;21093;-59
2022/02/23 01:47:26;;;;;;;20.97;9.18;;;;;;;5.49;77.21;149039.72;1713847;82;21096;-58
2022/02/23 01:49:56;;;;;;;23.95;9.45;;;;;;;5.44;77.30;149029.39;1709287;83;22075;-57
2022/02/23 01:52:25;;;;;;;19.77;9.63;;;;;;;5.41;77.39;149021.59;1714167;82;21664;-58
2022/02/23 01:54:53;;;;;;;17.35;8.80;;;;;;;5.36;77.38;149007.41;1704148;83;21049;-59
2022/02/23 01:57:21;;;;;;;21.62;9.48;;;;;;;5.27;77.36;148986.70;1718381;82;21084;-58
2022/02/23 01:59:48;;;;;;;29.60;9.45;;;;;;;5.23;77.50;148975.09;1697343;82;21103;-58
2022/02/23 02:02:17;;;;;;;20.65;9.45;;;;;;;5.17;77.69;148960.88;1716070;82;21033;-58
2022/02/23 02:04:44;;;;;;;21.45;9.95;;;;;;;5.09;77.71;148941.47;1714119;82;21062;-58
2022/02/23 02:07:11;;;;;;;32.25;9.63;;;;;;;5.09;77.71;148941.47;1715058;83;21050;-58
2022/02/23 02:09:38;;;;;;;22.25;9.95;;;;;;;5.05;77.87;148931.16;1703643;82;21050;-58
2022/02/23 02:12:07;;;;;;;21.45;9.50;;;;;;;4.99;77.83;148915.66;1706112;82;21041;-61
2022/02/23 02:14:34;;;;;;;23.95;9.90;;;;;;;4.87;78.03;148887.20;1728545;82;21136;-60
2022/02/23 02:17:01;;;;;;;16.73;9.13;;;;;;;4.87;78.03;148887.20;1738839;82;21045;-63
2022/02/23 02:19:30;;;;;;;19.00;9.80;;;;;;;4.84;78.08;148879.47;1738851;82;21092;-62
2022/02/23 02:22:04;;;;;;;22.00;9.43;;;;;;;4.80;78.20;148869.12;1738667;82;21040;-61
2022/02/23 02:24:33;;;;;;;19.77;9.10;;;;;;;4.76;78.22;148858.81;1739008;82;21204;-61
2022/02/23 02:27:00;;;;;;;35.20;13.75;;;;;;;4.65;78.30;148830.36;1719012;82;21062;-62
2022/02/23 02:29:29;;;;;;;23.30;10.70;;;;;;;4.65;78.30;148830.36;1710387;82;20977;-62
2022/02/23 02:31:56;;;;;;;21.33;9.38;;;;;;;4.64;78.42;148827.78;1733271;82;21040;-61
2022/02/23 02:34:23;;;;;;;16.87;8.45;;;;;;;4.58;78.46;148814.88;1738648;81;21049;-62
2022/02/23 02:36:51;;;;;;;19.90;8.58;;;;;;;4.49;78.85;148791.59;1738435;82;21731;-63
2022/02/23 02:39:19;;;;;;;19.23;8.28;;;;;;;4.49;78.85;148791.59;1739037;82;21545;-62
2022/02/23 02:41:46;;;;;;;20.12;9.70;;;;;;;4.47;78.78;148786.44;1718386;82;21064;-62
2022/02/23 02:44:13;;;;;;;18.95;9.10;;;;;;;4.44;78.73;148778.69;1726783;82;21811;-62
2022/02/23 02:46:40;;;;;;;21.07;9.10;;;;;;;4.41;78.72;148770.94;1719730;82;21092;-61
2022/02/23 02:49:07;;;;;;;20.40;9.20;;;;;;;4.36;78.59;148758.05;1741246;82;21160;-61
2022/02/23 02:51:34;;;;;;;18.92;9.00;;;;;;;4.35;79.01;148756.73;1742026;82;21164;-60
2022/02/23 02:54:01;;;;;;;16.00;8.63;;;;;;;4.32;79.30;148747.72;1740141;82;21227;-57
2022/02/23 02:56:28;;;;;;;18.42;9.88;;;;;;;4.29;79.59;148742.50;1716637;82;20965;-58
2022/02/23 02:58:55;;;;;;;19.30;8.55;;;;;;;4.30;79.71;148743.81;1724365;82;21068;-57
2022/02/23 03:01:24;;;;;;;19.48;8.60;;;;;;;4.26;79.75;148734.77;1678866;84;21106;-61
2022/02/23 03:03:52;;;;;;;26.48;10.03;;;;;;;4.23;79.92;148727.03;1683275;84;21077;-62
2022/02/23 03:06:19;;;;;;;23.90;9.73;;;;;;;4.19;79.94;148715.39;1677536;84;21072;-61
2022/02/23 03:08:47;;;;;;;21.73;10.13;;;;;;;4.14;80.18;148703.80;1682317;85;21053;-61
2022/02/23 03:11:14;;;;;;;22.40;10.50;;;;;;;4.08;80.38;148688.27;1733714;82;21553;-58
2022/02/23 03:13:41;;;;;;;21.75;10.90;;;;;;;4.03;80.78;148675.37;1736938;82;21542;-58
2022/02/23 03:16:11;;;;;;;21.75;11.18;;;;;;;3.98;80.96;148665.05;1711217;82;20992;-59
2022/02/23 03:18:39;;;;;;;19.32;10.13;;;;;;;3.85;81.40;148632.78;1709590;83;21040;-61
2022/02/23 03:21:06;;;;;;;21.07;10.98;;;;;;;3.85;81.40;148632.78;1703010;83;21073;-62
2022/02/23 03:23:34;;;;;;;23.65;12.23;;;;;;;3.81;81.63;148621.14;1679800;83;21077;-60
2022/02/23 03:26:01;;;;;;;27.50;13.65;;;;;;;3.70;82.08;148594.03;1676035;85;21522;-61
2022/02/23 03:28:29;;;;;;;40.90;21.12;;;;;;;3.70;82.08;148594.03;1706657;82;20964;-60
2022/02/23 03:30:56;;;;;;;35.63;17.65;;;;;;;3.64;82.23;148579.81;1735091;82;21049;-61
2022/02/23 03:33:23;;;;;;;31.50;14.07;;;;;;;3.60;82.49;148568.25;1699990;83;21084;-61
2022/02/23 03:35:51;;;;;;;87.50;42.83;;;;;;;3.54;82.60;148555.34;1703155;83;21127;-61
2022/02/23 03:38:18;;;;;;;48.78;24.27;;;;;;;3.50;82.87;148543.72;1706622;83;21862;-58
2022/02/23 03:40:45;;;;;;;48.02;23.98;;;;;;;3.44;83.08;148530.81;1705468;82;21660;-58
2022/02/23 03:43:16;;;;;;;73.65;34.80;;;;;;;3.40;83.22;148519.19;1691763;84;21042;-58
2022/02/23 03:45:41;;;;;;;130.72;51.95;;;;;;;3.33;83.47;148501.13;1680654;83;21049;-59
2022/02/23 03:48:08;;;;;;;73.65;33.53;;;;;;;3.27;83.79;148486.94;1713879;83;21136;-58
2022/02/23 03:50:36;;;;;;;55.55;24.07;;;;;;;3.23;84.18;148476.61;1730368;82;21309;-58
2022/02/23 03:53:03;;;;;;;94.15;36.68;;;;;;;3.20;84.43;148468.83;1708065;83;21040;-62
2022/02/23 03:55:31;;;;;;;85.05;39.48;;;;;;;3.09;84.84;148443.05;1683439;83;21076;-59
2022/02/23 03:57:59;;;;;;;154.03;72.12;;;;;;;3.00;85.33;148419.84;1694505;83;21283;-61
2022/02/23 04:00:26;;;;;;;133.43;60.52;;;;;;;2.93;85.96;148401.75;1685163;83;21585;-61
2022/02/23 04:02:53;;;;;;;133.78;59.67;;;;;;;2.86;86.25;148384.97;1705699;83;21134;-61
2022/02/23 04:05:20;;;;;;;133.83;61.10;;;;;;;2.80;86.65;148370.81;1708830;83;20946;-61
2022/02/23 04:07:47;;;;;;;100.62;49.40;;;;;;;2.74;86.87;148354.03;1677527;84;21362;-61
2022/02/23 04:10:19;;;;;;;83.65;35.58;;;;;;;2.67;87.27;148337.27;1693253;84;21053;-62
2022/02/23 04:12:45;;;;;;;102.10;45.75;;;;;;;2.60;87.52;148320.48;1686186;84;21109;-62
2022/02/23 04:15:14;;;;;;;175.12;77.12;;;;;;;2.51;87.71;148298.56;1650942;85;22090;-62
2022/02/23 04:17:42;;;;;;;184.52;83.17;;;;;;;2.43;88.17;148277.94;1697741;83;21034;-61
2022/02/23 04:20:10;;;;;;;103.07;48.68;;;;;;;2.36;88.46;148259.91;1680505;83;21101;-62
2022/02/23 04:22:38;;;;;;;144.55;63.28;;;;;;;2.29;88.60;148243.13;1648255;86;21515;-61
2022/02/23 04:25:06;;;;;;;71.90;35.23;;;;;;;2.23;88.73;148228.94;1679396;84;21100;-61
2022/02/23 04:27:34;;;;;;;109.25;50.08;;;;;;;2.17;88.73;148212.16;1679808;85;21112;-61
2022/02/23 04:30:01;;;;;;;135.22;58.38;;;;;;;2.10;89.07;148195.41;1698238;83;21121;-64
2022/02/23 04:32:29;;;;;;;135.40;61.23;;;;;;;2.04;89.24;148179.94;1693379;84;21022;-57
2022/02/23 04:34:56;;;;;;;100.25;45.03;;;;;;;1.99;89.30;148168.38;1656120;85;21602;-59
2022/02/23 04:37:29;;;;;;;206.95;89.47;;;;;;;1.92;89.40;148151.59;1707107;83;21010;-57
2022/02/23 04:39:55;;;;;;;134.78;54.00;;;;;;;1.87;89.82;148138.67;1702200;83;21150;-61
2022/02/23 04:42:22;;;;;;;90.35;39.20;;;;;;;1.81;89.97;148123.22;1710429;83;21435;-61
2022/02/23 04:44:49;;;;;;;189.03;86.87;;;;;;;1.78;90.12;148115.50;1705537;83;21123;-61
2022/02/23 04:47:16;;;;;;;178.55;82.70;;;;;;;1.73;90.35;148102.63;1698636;83;21137;-61
2022/02/23 04:49:43;;;;;;;182.22;83.60;;;;;;;1.69;90.42;148094.89;1688923;84;21061;-61
2022/02/23 04:52:11;;;;;;;188.25;87.12;;;;;;;1.66;90.47;148087.17;1677425;85;21918;-63
2022/02/23 04:54:38;;;;;;;232.75;105.95;;;;;;;1.64;90.52;148080.70;1684699;84;21009;-62
2022/02/23 04:57:05;;;;;;;108.75;48.45;;;;;;;1.59;90.54;148069.09;1694677;84;21075;-62
2022/02/23 04:59:33;;;;;;;114.97;53.48;;;;;;;1.54;90.49;148056.22;1715916;83;21080;-62
2022/02/23 05:02:00;;;;;;;137.65;59.55;;;;;;;1.48;90.48;148042.03;1713028;82;21095;-61
2022/02/23 05:04:28;;;;;;;152.90;65.42;;;;;;;1.45;90.54;148033.05;1684813;84;21706;-62
2022/02/23 05:06:56;;;;;;;140.43;53.92;;;;;;;1.43;90.65;148029.16;1695448;83;21032;-62
2022/02/23 05:09:23;;;;;;;158.65;69.70;;;;;;;1.40;90.72;148022.69;1713982;83;21013;-62
2022/02/23 05:11:50;;;;;;;97.67;40.63;;;;;;;1.38;90.76;148017.55;1713020;83;21464;-61
2022/02/23 05:14:20;;;;;;;47.43;22.37;;;;;;;1.36;90.78;148012.39;1713454;83;21090;-61
2022/02/23 05:16:48;;;;;;;55.20;25.48;;;;;;;1.33;90.79;148004.67;1712493;83;22014;-62
2022/02/23 05:19:15;;;;;;;83.12;36.88;;;;;;;1.34;90.86;148007.25;1714320;82;21104;-62
2022/02/23 05:21:43;;;;;;;84.87;34.20;;;;;;;1.39;90.89;148020.13;1712900;83;21434;-60
2022/02/23 05:24:11;;;;;;;67.50;30.08;;;;;;;1.49;90.71;148044.61;1716583;82;21053;-61
2022/02/23 05:26:38;;;;;;;56.00;25.62;;;;;;;1.59;90.50;148067.83;1683004;85;21037;-61
2022/02/23 05:29:06;;;;;;;52.80;24.00;;;;;;;1.65;90.12;148084.55;1702843;83;21215;-61
2022/02/23 05:31:33;;;;;;;43.05;17.80;;;;;;;1.75;89.82;148109.03;1702318;83;21061;-63
2022/02/23 05:34:00;;;;;;;75.85;36.20;;;;;;;1.84;89.42;148130.95;1721807;83;21103;-62
2022/02/23 05:36:27;;;;;;;111.70;51.08;;;;;;;1.93;88.87;148154.17;1722088;83;21064;-58
2022/02/23 05:38:56;;;;;;;79.65;36.30;;;;;;;2.03;88.13;148177.36;1699511;83;21088;-62
2022/02/23 05:41:24;;;;;;;67.95;31.57;;;;;;;2.11;87.73;148199.28;1710373;83;21142;-60
2022/02/23 05:43:51;;;;;;;49.45;24.02;;;;;;;2.24;87.54;148231.52;1713472;83;21288;-61
2022/02/23 05:46:19;;;;;;;48.05;23.65;;;;;;;2.36;86.74;148259.91;1713878;83;21104;-61
2022/02/23 05:48:46;;;;;;;80.67;37.03;;;;;;;2.44;85.76;148280.52;1713400;83;21060;-62
2022/02/23 05:51:36;;;;;;;47.08;23.77;;;;;;;2.52;85.43;148299.88;1708262;83;21040;-62
2022/02/23 05:54:04;;;;;;;49.27;23.67;;;;;;;2.56;84.10;148311.48;1684421;85;21576;-62
2022/02/23 05:56:31;;;;;;;43.95;20.97;;;;;;;2.57;83.54;148312.75;1696503;83;20953;-62
2022/02/23 05:58:58;;;;;;;72.65;36.28;;;;;;;2.58;83.29;148315.33;1703705;83;21140;-62
2022/02/23 06:01:25;;;;;;;49.98;26.33;;;;;;;2.61;83.03;148321.80;1712619;83;21044;-62
2022/02/23 06:03:53;;;;;;;61.40;26.90;;;;;;;2.67;83.03;148337.27;1712508;83;21525;-61
2022/02/23 06:06:22;;;;;;;64.27;29.72;;;;;;;2.74;82.58;148355.31;1709682;83;21061;-57
2022/02/23 06:08:49;;;;;;;31.77;14.43;;;;;;;2.78;82.51;148365.66;1724282;83;21061;-57
2022/02/23 06:11:16;;;;;;;22.02;11.95;;;;;;;2.79;82.33;148368.23;1726227;82;21111;-59
2022/02/23 06:13:50;;;;;;;31.62;15.05;;;;;;;2.78;82.47;148365.66;1724498;83;22127;-59
2022/02/23 06:16:25;;;;;;;21.42;10.10;;;;;;;2.79;82.46;148368.23;1721090;81;21111;-58
2022/02/23 06:18:52;;;;;;;22.37;10.82;;;;;;;2.83;82.62;148378.55;1711481;83;21872;-60
2022/02/23 06:21:19;;;;;;;20.40;9.60;;;;;;;2.90;82.19;148394.02;1707160;83;21096;-61
2022/02/23 06:23:46;;;;;;;29.48;13.80;;;;;;;2.98;81.98;148415.95;1685280;83;21140;-61
2022/02/23 06:26:13;;;;;;;15.78;8.35;;;;;;;3.09;81.98;148443.05;1682940;83;21132;-61
2022/02/23 06:28:40;;;;;;;22.50;10.93;;;;;;;3.27;81.45;148486.94;1694779;84;21132;-62
2022/02/23 06:31:07;;;;;;;22.10;8.65;;;;;;;3.38;80.68;148515.30;1693070;83;21131;-60
2022/02/23 06:33:34;;;;;;;17.37;9.10;;;;;;;3.54;80.21;148554.03;1695392;84;20990;-63
2022/02/23 06:36:02;;;;;;;19.42;8.73;;;;;;;3.64;79.78;148579.81;1695527;82;21061;-61
2022/02/23 06:38:29;;;;;;;22.50;8.68;;;;;;;3.76;79.20;148608.25;1687079;83;21010;-62
2022/02/23 06:40:57;;;;;;;18.15;9.13;;;;;;;3.91;79.44;148645.67;1691014;82;21147;-61
2022/02/23 06:43:24;;;;;;;31.50;16.73;;;;;;;4.05;78.32;148680.53;1682316;83;21142;-66
2022/02/23 06:45:52;;;;;;;38.65;17.42;;;;;;;4.14;77.88;148703.80;1635049;85;21084;-61
2022/02/23 06:48:22;;;;;;;25.72;11.63;;;;;;;4.24;77.54;148728.34;1727877;82;21571;-61
2022/02/23 06:50:50;;;;;;;28.32;9.33;;;;;;;4.33;76.99;148750.30;1729674;81;21076;-61
2022/02/23 06:53:19;;;;;;;18.37;9.63;;;;;;;4.44;76.93;148778.69;1674477;83;21040;-60
2022/02/23 06:55:46;;;;;;;22.07;9.83;;;;;;;4.71;75.98;148847.17;1695083;81;21279;-61
2022/02/23 06:58:14;;;;;;;13.22;7.37;;;;;;;4.71;75.98;148847.17;1725366;81;21098;-61
2022/02/23 07:00:41;;;;;;;19.70;7.97;;;;;;;4.84;75.26;148879.47;1726791;81;21092;-62
2022/02/23 07:03:08;;;;;;;16.15;8.65;;;;;;;4.95;74.85;148905.28;1690640;83;21109;-61
2022/02/23 07:05:36;;;;;;;13.00;7.78;;;;;;;5.07;74.39;148936.31;1687733;83;21049;-60
2022/02/23 07:08:05;;;;;;;19.92;8.33;;;;;;;5.20;74.19;148967.34;1748448;80;21832;-60
2022/02/23 07:10:33;;;;;;;23.20;11.10;;;;;;;5.33;73.88;149000.92;1748931;80;21131;-61
2022/02/23 07:13:04;;;;;;;69.50;35.10;;;;;;;5.43;72.71;149026.81;1740266;81;21108;-62
2022/02/23 07:15:32;;;;;;;35.25;17.55;;;;;;;5.56;71.99;149057.80;1747823;80;20974;-62
2022/02/23 07:17:59;;;;;;;29.65;14.83;;;;;;;5.64;72.39;149078.52;1745195;80;21036;-62
2022/02/23 07:20:28;;;;;;;153.85;76.45;;;;;;;5.76;71.45;149106.94;1756281;79;21139;-63
2022/02/23 07:22:56;;;;;;;96.82;41.23;;;;;;;5.83;70.77;149125.02;1751185;79;21040;-62
2022/02/23 07:25:25;;;;;;;34.00;15.65;;;;;;;5.84;70.60;149127.61;1742183;81;21027;-63
2022/02/23 07:27:52;;;;;;;88.95;44.70;;;;;;;5.87;70.55;149135.41;1745159;80;21119;-61
2022/02/23 07:30:19;;;;;;;89.90;45.63;;;;;;;5.89;70.09;149140.58;1758062;79;21064;-58
2022/02/23 07:32:46;;;;;;;86.70;36.55;;;;;;;5.89;70.13;149140.58;1748926;80;21211;-62
2022/02/23 07:35:13;;;;;;;90.35;41.50;;;;;;;5.92;69.76;149148.33;1715088;82;21113;-62
2022/02/23 07:37:45;;;;;;;95.17;45.40;;;;;;;6.01;70.60;149171.63;1715467;81;21037;-60
2022/02/23 07:40:19;;;;;;;105.50;55.58;;;;;;;6.19;70.57;149215.62;1724471;81;22186;-61
2022/02/23 07:42:46;;;;;;;44.77;22.73;;;;;;;6.29;69.69;149241.47;1704314;82;21069;-58
2022/02/23 07:45:15;;;;;;;65.08;29.80;;;;;;;6.35;68.78;149254.44;1718751;82;21345;-58
2022/02/23 07:47:43;;;;;;;19.57;9.28;;;;;;;6.42;69.38;149273.84;1714948;81;21112;-59
2022/02/23 07:50:14;;;;;;;29.18;13.22;;;;;;;6.52;68.71;149297.11;1709474;81;21084;-58
2022/02/23 07:52:42;;;;;;;61.53;29.57;;;;;;;6.57;68.00;149310.03;1705074;82;21545;-58
2022/02/23 07:55:11;;;;;;;21.00;11.00;;;;;;;6.64;68.50;149328.19;1708996;81;21826;-63
2022/02/23 07:57:41;;;;;;;21.60;11.50;;;;;;;6.78;68.12;149363.11;1706380;82;21157;-62
2022/02/23 08:00:10;;;;;;;15.98;7.67;;;;;;;6.94;68.03;149401.91;1731700;81;21073;-62
2022/02/23 08:02:40;;;;;;;13.13;6.47;;;;;;;7.09;66.36;149439.47;1755721;79;21181;-62
2022/02/23 08:05:07;;;;;;;15.32;6.60;;;;;;;7.13;64.98;149451.09;1743138;79;21135;-62
2022/02/23 08:07:36;;;;;;;12.73;6.92;;;;;;;7.14;65.18;149453.67;1739709;80;21037;-63
2022/02/23 08:10:05;;;;;;;22.35;8.78;;;;;;;7.18;65.61;149462.75;1746527;80;21127;-62
2022/02/23 08:12:32;;;;;;;14.28;6.67;;;;;;;7.26;65.32;149483.44;1744921;80;21558;-62
2022/02/23 08:19:30;;;;;;;18.35;6.80;;;;;;;7.34;65.13;149502.88;1706474;81;21092;-59
2022/02/23 08:20:14;;;;;;;8.30;4.47;;;;;;;7.46;63.90;149532.64;1704708;81;21016;-59
2022/02/23 08:22:41;;;;;;;8.95;4.80;;;;;;;7.49;62.01;149539.14;1744542;79;21906;-59
2022/02/23 08:25:08;;;;;;;9.70;4.40;;;;;;;7.47;62.43;149535.22;1706482;81;21049;-61
2022/02/23 08:27:36;;;;;;;9.55;4.95;;;;;;;7.47;62.35;149535.22;1719197;81;21088;-61
2022/02/23 08:30:05;;;;;;;12.95;5.55;;;;;;;7.48;62.62;149536.55;1717489;81;21454;-61
2022/02/23 08:32:33;;;;;;;10.10;5.20;;;;;;;7.54;62.99;149552.06;1704987;81;21055;-58
2022/02/23 08:34:59;;;;;;;17.00;7.30;;;;;;;7.58;62.75;149562.42;1705439;81;21156;-61
2022/02/23 08:37:26;;;;;;;13.15;5.78;;;;;;;7.64;63.08;149578.00;1710764;81;21435;-62
2022/02/23 08:39:53;;;;;;;17.87;5.72;;;;;;;7.64;62.42;149578.00;1712249;81;21072;-59
2022/02/23 08:42:19;;;;;;;52.55;25.35;;;;;;;7.66;62.83;149583.17;1709614;81;21550;-59
2022/02/23 08:44:46;;;;;;;22.95;11.75;;;;;;;7.74;62.82;149602.59;1706298;81;21048;-59
2022/02/23 08:47:13;;;;;;;26.02;11.65;;;;;;;7.83;62.89;149624.56;1703738;81;22376;-59
2022/02/23 08:49:40;;;;;;;24.85;8.45;;;;;;;7.95;62.01;149655.67;1706019;82;21144;-59
2022/02/23 08:52:08;;;;;;;35.33;7.35;;;;;;;7.98;62.03;149663.44;1745157;80;21099;-57
2022/02/23 08:54:34;;;;;;;19.02;6.53;;;;;;;8.08;62.18;149686.78;1720822;82;21036;-58
2022/02/23 08:57:02;;;;;;;19.85;7.05;;;;;;;8.20;61.14;149717.84;1696636;82;21075;-59
2022/02/23 08:59:28;;;;;;;11.50;6.03;;;;;;;8.28;60.33;149737.28;1693285;82;21934;-58
2022/02/23 09:01:56;;;;;;;8.95;4.83;;;;;;;8.30;59.16;149743.78;1692111;82;21061;-59
2022/02/23 09:04:26;;;;;;;19.40;6.22;;;;;;;8.25;58.97;149730.78;1690489;82;21655;-59
2022/02/23 09:06:52;;;;;;;16.15;5.80;;;;;;;8.25;59.77;149729.52;1665174;83;21539;-59
2022/02/23 09:09:19;;;;;;;12.10;5.42;;;;;;;8.27;58.19;149735.97;1693599;82;21077;-59
2022/02/23 09:11:47;;;;;;;12.68;5.62;;;;;;;8.30;58.79;149743.78;1693105;82;21117;-57
2022/02/23 09:14:15;;;;;;;9.08;4.17;;;;;;;8.34;58.93;149751.53;1642805;85;21496;-58
2022/02/23 09:16:44;;;;;;;20.92;7.30;;;;;;;8.37;58.23;149759.31;1658368;84;21013;-58
2022/02/23 09:19:11;;;;;;;20.77;5.25;;;;;;;8.40;58.58;149767.08;1701051;82;21077;-58
2022/02/23 09:21:38;;;;;;;16.95;5.60;;;;;;;8.50;58.87;149793.02;1702044;81;21075;-58
2022/02/23 09:24:07;;;;;;;18.35;4.62;;;;;;;8.58;58.10;149813.78;1754686;79;21122;-58
2022/02/23 09:26:37;;;;;;;14.00;4.30;;;;;;;8.63;57.78;149824.13;1753081;79;22119;-58
2022/02/23 09:29:03;;;;;;;18.23;5.20;;;;;;;8.68;57.30;149838.41;1721017;81;21408;-59
2022/02/23 09:31:31;;;;;;;11.08;4.22;;;;;;;8.71;57.04;149844.84;1750752;79;21525;-59
2022/02/23 09:33:58;;;;;;;13.35;3.60;;;;;;;8.70;55.94;149842.25;1748567;79;21051;-61
2022/02/23 09:36:26;;;;;;;17.60;3.60;;;;;;;8.73;56.02;149850.03;1715674;81;21111;-62
2022/02/23 09:38:54;;;;;;;13.45;3.52;;;;;;;8.81;55.83;149869.47;1745619;79;21566;-63
2022/02/23 09:41:22;;;;;;;12.47;3.77;;;;;;;8.86;55.63;149883.73;1720987;80;21068;-62
2022/02/23 09:43:53;;;;;;;14.05;4.08;;;;;;;8.88;54.91;149888.92;1726919;80;21060;-57
2022/02/23 09:46:21;;;;;;;8.58;3.40;;;;;;;8.86;54.41;149883.73;1725946;80;21279;-61
2022/02/23 09:48:49;;;;;;;13.22;4.37;;;;;;;8.83;54.31;149875.97;1725934;80;21669;-62
2022/02/23 09:51:16;;;;;;;10.50;3.87;;;;;;;8.80;54.42;149866.88;1692152;82;21029;-62
2022/02/23 09:53:49;;;;;;;9.48;4.22;;;;;;;8.74;54.51;149852.66;1689532;82;21063;-61
2022/02/23 09:56:14;;;;;;;15.48;4.97;;;;;;;8.73;54.78;149850.03;1719110;80;21024;-62
2022/02/23 09:58:41;;;;;;;10.82;4.67;;;;;;;8.75;55.05;149855.25;1692725;82;21144;-58
2022/02/23 10:01:15;;;;;;;14.55;4.90;;;;;;;8.77;55.38;149860.44;1695453;82;22259;-63
2022/02/23 10:03:47;;;;;;;9.40;4.50;;;;;;;8.83;55.23;149875.97;1691279;82;21091;-61
2022/02/23 10:06:23;;;;;;;12.45;4.58;;;;;;;8.87;55.10;149885.06;1690983;82;21101;-62
2022/02/23 10:09:10;;;;;;;14.40;5.30;;;;;;;8.94;54.59;149901.87;1701288;81;21161;-61
2022/02/23 10:11:39;;;;;;;16.48;5.80;;;;;;;9.00;54.32;149917.47;1715026;81;21106;-60
2022/02/23 10:14:07;;;;;;;15.40;5.50;;;;;;;9.09;56.40;149940.77;1682510;82;21114;-64
2022/02/23 10:16:41;;;;;;;9.75;4.90;;;;;;;9.17;57.21;149961.53;1710015;82;21052;-58
2022/02/23 10:19:17;;;;;;;12.03;5.53;;;;;;;9.23;57.21;149974.50;1708889;82;21127;-59
2022/02/23 10:21:55;;;;;;;10.30;5.28;;;;;;;9.25;57.24;149979.67;1712636;81;21188;-60
2022/02/23 10:24:34;;;;;;;12.82;5.03;;;;;;;9.25;57.50;149979.67;1673672;83;21040;-58
2022/02/23 10:27:07;;;;;;;11.90;4.97;;;;;;;9.25;57.13;149979.67;1722994;81;21135;-62
2022/02/23 10:29:55;;;;;;;10.38;4.92;;;;;;;9.25;57.41;149979.67;1724223;81;21496;-61
2022/02/23 10:32:25;;;;;;;15.70;4.12;;;;;;;9.26;57.05;149982.27;1717624;82;21776;-61
2022/02/23 10:34:55;;;;;;;10.98;4.85;;;;;;;9.29;56.40;149990.03;1718472;81;21092;-60
2022/02/23 10:37:24;;;;;;;13.32;4.35;;;;;;;9.32;56.24;149997.81;1721486;81;21061;-62
2022/02/23 10:39:59;;;;;;;8.40;3.98;;;;;;;9.35;56.17;150005.58;1717492;81;21214;-61
2022/02/23 10:42:26;;;;;;;10.82;4.30;;;;;;;9.39;55.89;150015.94;1716447;81;21104;-60
2022/02/23 10:44:54;;;;;;;7.25;3.90;;;;;;;9.45;55.56;150031.53;1720703;81;21096;-61
2022/02/23 10:47:32;;;;;;;5.28;3.40;;;;;;;9.52;55.31;150047.09;1712901;81;21175;-59
2022/02/23 10:50:08;;;;;;;9.13;3.65;;;;;;;9.58;54.73;150062.62;1718459;81;21021;-59
2022/02/23 10:52:39;;;;;;;9.50;3.62;;;;;;;9.63;54.45;150074.31;1717707;81;21916;-60
2022/02/23 10:55:19;;;;;;;11.63;3.33;;;;;;;9.65;53.92;150079.50;1720275;81;21001;-60
2022/02/23 10:57:49;;;;;;;11.60;3.58;;;;;;;9.66;53.64;150083.41;1714826;81;21080;-63
2022/02/23 11:00:23;;;;;;;6.95;3.90;;;;;;;9.69;53.29;150089.86;1715919;81;21119;-60
2022/02/23 11:03:04;;;;;;;10.68;3.87;;;;;;;9.71;53.24;150096.36;1710855;81;20926;-60
2022/02/23 11:05:39;;;;;;;8.80;3.92;;;;;;;9.75;53.51;150106.73;1720107;81;21315;-59
2022/02/23 11:08:11;;;;;;;8.15;3.30;;;;;;;9.74;53.73;150104.14;1732952;80;21374;-61
2022/02/23 11:10:35;;;;;;;9.38;3.62;;;;;;;9.74;53.81;150104.14;1739701;79;21044;-59
2022/02/23 11:13:02;;;;;;;9.38;3.87;;;;;;;9.78;53.48;150111.91;1735259;79;20945;-58
2022/02/23 11:15:30;;;;;;;10.00;3.83;;;;;;;9.78;53.33;150111.91;1740276;79;21405;-60
2022/02/23 11:17:57;;;;;;;8.23;4.37;;;;;;;9.77;53.16;150109.33;1709760;81;21592;-61
2022/02/23 11:20:30;;;;;;;8.48;4.03;;;;;;;9.75;53.16;150106.73;1713425;81;21027;-59
2022/02/23 11:23:02;;;;;;;7.50;3.35;;;;;;;9.73;53.07;150101.55;1730065;81;21067;-57
2022/02/23 11:25:38;;;;;;;5.92;3.47;;;;;;;9.68;52.90;150088.59;1716391;81;21192;-58
2022/02/23 11:28:10;;;;;;;6.28;3.62;;;;;;;9.64;52.60;150078.22;1712589;81;21053;-58
2022/02/23 11:30:37;;;;;;;8.28;3.83;;;;;;;9.62;52.69;150073.05;1721679;81;21898;-60